Time;durP1;ratioP1;P1;durP2;ratioP2;P2;SDS_P1;SDS_P2;PMS_P1;PMS_P2;Temp;Humidity;BMP_temperature;BMP_pressure;BME280_temperature;BME280_humidity;BME280_pressure;Samples;Min_cycle;Max_cycle;Signal;HPM_P1;HPM_P2
2020/12/01 00:00:21;;;;;;;43.57;20.30;;;;;;;;;;5039450;28;20203;-71
2020/12/01 00:02:46;;;;;;;38.77;20.03;;;;;;;;;;5048086;28;20185;-72
2020/12/01 00:05:14;;;;;;;41.07;19.93;;;;;;;;;;5038088;28;20547;-72
2020/12/01 00:07:40;;;;;;;38.90;19.63;;;;;;;;;;5042692;28;20201;-72
2020/12/01 00:10:07;;;;;;;40.60;20.37;;;;;;;;;;5039010;28;20196;-72
2020/12/01 00:12:32;;;;;;;39.83;19.17;;;;;;;;;;5050665;28;20182;-72
2020/12/01 00:14:57;;;;;;;40.23;19.97;;;;;;;;;;5046523;28;20494;-72
2020/12/01 00:17:23;;;;;;;39.67;20.57;;;;;;;;;;5043112;28;20557;-71
2020/12/01 00:19:48;;;;;;;39.70;20.00;;;;;;;;;;5042919;28;20706;-72
2020/12/01 00:22:13;;;;;;;35.17;19.80;;;;;;;;;;5042173;28;20193;-72
2020/12/01 00:24:39;;;;;;;39.77;20.60;;;;;;;;;;5043130;28;20184;-71
2020/12/01 00:27:04;;;;;;;41.97;19.83;;;;;;;;;;5039725;28;20194;-71
2020/12/01 00:29:30;;;;;;;38.03;20.03;;;;;;;;;;5046219;28;20637;-71
2020/12/01 00:31:55;;;;;;;35.80;19.70;;;;;;;;;;5038279;28;20704;-72
2020/12/01 00:34:20;;;;;;;39.07;20.07;;;;;;;;;;5046190;28;20283;-72
2020/12/01 00:36:46;;;;;;;38.63;21.10;;;;;;;;;;5042332;28;20338;-72
2020/12/01 00:39:12;;;;;;;38.43;19.40;;;;;;;;;;5050434;28;20181;-72
2020/12/01 00:41:37;;;;;;;38.53;20.00;;;;;;;;;;5042570;28;20192;-71
2020/12/01 00:44:03;;;;;;;37.13;19.90;;;;;;;;;;5049735;28;20196;-70
2020/12/01 00:46:29;;;;;;;37.53;20.03;;;;;;;;;;5052615;28;20185;-70
2020/12/01 00:48:55;;;;;;;42.30;20.17;;;;;;;;;;5035247;28;20578;-70
2020/12/01 00:51:21;;;;;;;38.90;19.73;;;;;;;;;;5054791;28;20287;-70
2020/12/01 00:53:46;;;;;;;42.80;20.70;;;;;;;;;;5040298;28;20552;-70
2020/12/01 00:56:12;;;;;;;42.97;20.90;;;;;;;;;;5046174;28;20268;-70
2020/12/01 00:58:38;;;;;;;38.37;20.40;;;;;;;;;;5040914;28;20181;-70
2020/12/01 01:01:04;;;;;;;37.00;20.23;;;;;;;;;;5050865;28;20201;-70
2020/12/01 01:03:29;;;;;;;37.07;19.30;;;;;;;;;;5041411;28;20186;-71
2020/12/01 01:05:55;;;;;;;39.47;19.77;;;;;;;;;;5050606;28;20235;-71
2020/12/01 01:08:20;;;;;;;40.93;20.63;;;;;;;;;;5040547;28;20201;-71
2020/12/01 01:10:45;;;;;;;43.97;20.83;;;;;;;;;;5045698;28;20268;-70
2020/12/01 01:13:11;;;;;;;39.93;19.57;;;;;;;;;;5041689;28;20285;-70
2020/12/01 01:15:36;;;;;;;48.07;20.70;;;;;;;;;;5050542;28;20182;-71
2020/12/01 01:18:03;;;;;;;36.67;19.83;;;;;;;;;;5046656;28;20244;-71
2020/12/01 01:20:28;;;;;;;37.93;19.87;;;;;;;;;;5039620;28;20240;-71
2020/12/01 01:22:55;;;;;;;40.60;19.27;;;;;;;;;;5048537;28;20213;-70
2020/12/01 01:25:21;;;;;;;42.30;19.40;;;;;;;;;;5042652;28;20201;-71
2020/12/01 01:27:47;;;;;;;34.67;18.33;;;;;;;;;;5051072;28;20585;-70
2020/12/01 01:30:16;;;;;;;44.73;19.60;;;;;;;;;;5042025;28;20459;-70
2020/12/01 01:32:41;;;;;;;37.90;18.07;;;;;;;;;;5051703;28;20231;-70
2020/12/01 01:35:06;;;;;;;39.27;18.63;;;;;;;;;;5040065;28;20213;-71
2020/12/01 01:37:32;;;;;;;41.60;17.60;;;;;;;;;;5050776;28;20710;-70
2020/12/01 01:39:57;;;;;;;33.50;15.97;;;;;;;;;;5041295;28;20633;-71
2020/12/01 01:42:23;;;;;;;32.77;16.40;;;;;;;;;;5049509;28;20191;-70
2020/12/01 01:44:48;;;;;;;33.63;15.73;;;;;;;;;;5041776;28;20201;-70
2020/12/01 01:47:22;;;;;;;31.53;15.70;;;;;;;;;;5048198;28;20193;-71
2020/12/01 01:49:52;;;;;;;36.87;15.87;;;;;;;;;;5043367;28;20740;-71
2020/12/01 01:52:32;;;;;;;32.23;15.57;;;;;;;;;;5049074;28;20745;-70
2020/12/01 01:55:01;;;;;;;33.27;15.13;;;;;;;;;;5038405;28;20212;-70
2020/12/01 01:57:28;;;;;;;40.37;14.93;;;;;;;;;;5051289;28;20190;-70
2020/12/01 01:59:54;;;;;;;37.93;14.90;;;;;;;;;;5048797;28;20204;-70
2020/12/01 02:02:19;;;;;;;32.63;13.77;;;;;;;;;;5040667;28;20182;-70
2020/12/01 02:04:44;;;;;;;34.83;14.30;;;;;;;;;;5050440;28;20185;-70
2020/12/01 02:07:10;;;;;;;35.93;13.83;;;;;;;;;;5039638;28;20236;-70
2020/12/01 02:09:42;;;;;;;35.97;13.37;;;;;;;;;;5049552;28;20185;-70
2020/12/01 02:12:10;;;;;;;33.33;13.30;;;;;;;;;;5041588;28;20657;-70
2020/12/01 02:15:01;;;;;;;35.53;14.47;;;;;;;;;;5047628;28;20284;-70
2020/12/01 02:17:32;;;;;;;34.93;13.67;;;;;;;;;;5038937;28;20711;-71
2020/12/01 02:20:03;;;;;;;38.60;13.70;;;;;;;;;;5047998;28;20404;-71
2020/12/01 02:22:29;;;;;;;33.57;14.20;;;;;;;;;;5040175;28;20269;-71
2020/12/01 02:24:56;;;;;;;48.40;15.07;;;;;;;;;;5049634;28;20213;-71
2020/12/01 02:27:25;;;;;;;38.40;13.83;;;;;;;;;;5040679;28;20215;-71
2020/12/01 02:29:53;;;;;;;40.57;14.77;;;;;;;;;;5050000;28;20181;-71
2020/12/01 02:32:20;;;;;;;52.27;14.33;;;;;;;;;;5040272;28;20320;-71
2020/12/01 02:34:47;;;;;;;47.70;13.53;;;;;;;;;;5048723;28;20209;-71
2020/12/01 02:37:15;;;;;;;41.10;12.37;;;;;;;;;;5039648;28;20582;-71
2020/12/01 02:39:41;;;;;;;38.67;11.97;;;;;;;;;;5048914;28;20185;-71
2020/12/01 02:42:11;;;;;;;32.03;10.77;;;;;;;;;;5049537;28;20663;-71
2020/12/01 02:44:36;;;;;;;36.83;11.07;;;;;;;;;;5039253;28;20663;-71
2020/12/01 02:47:04;;;;;;;26.63;10.20;;;;;;;;;;5050243;28;20190;-71
2020/12/01 02:49:31;;;;;;;29.90;9.93;;;;;;;;;;5040327;28;20276;-71
2020/12/01 02:51:56;;;;;;;33.07;9.60;;;;;;;;;;5050570;28;20251;-71
2020/12/01 02:54:21;;;;;;;26.97;9.43;;;;;;;;;;5038973;28;20209;-71
2020/12/01 02:56:47;;;;;;;27.67;9.50;;;;;;;;;;5047278;28;20268;-71
2020/12/01 02:59:13;;;;;;;31.13;8.63;;;;;;;;;;5037965;28;20221;-71
2020/12/01 03:01:39;;;;;;;36.90;7.83;;;;;;;;;;5042553;28;20193;-71
2020/12/01 03:04:04;;;;;;;27.60;7.60;;;;;;;;;;5041743;28;20558;-71
2020/12/01 03:06:29;;;;;;;24.53;6.90;;;;;;;;;;5048476;28;20197;-71
2020/12/01 03:08:55;;;;;;;20.20;5.67;;;;;;;;;;5036346;28;20290;-71
2020/12/01 03:11:20;;;;;;;26.90;6.40;;;;;;;;;;5048980;28;20192;-71
2020/12/01 03:13:46;;;;;;;31.97;5.70;;;;;;;;;;5034653;28;20198;-71
2020/12/01 03:16:12;;;;;;;24.57;5.90;;;;;;;;;;5049279;28;20192;-71
2020/12/01 03:18:39;;;;;;;27.80;4.67;;;;;;;;;;5046524;28;20564;-71
2020/12/01 03:21:05;;;;;;;30.47;4.73;;;;;;;;;;5041138;28;20219;-71
2020/12/01 03:23:31;;;;;;;27.27;4.30;;;;;;;;;;5045926;28;20197;-70
2020/12/01 03:25:57;;;;;;;30.17;3.93;;;;;;;;;;5042266;28;20197;-71
2020/12/01 03:28:22;;;;;;;27.17;4.10;;;;;;;;;;5050589;28;20185;-71
2020/12/01 03:30:48;;;;;;;25.33;3.30;;;;;;;;;;5038860;28;20288;-71
2020/12/01 03:33:13;;;;;;;26.50;4.63;;;;;;;;;;5048454;28;20236;-70
2020/12/01 03:35:38;;;;;;;28.53;3.63;;;;;;;;;;5038788;28;20181;-70
2020/12/01 03:38:04;;;;;;;18.43;3.03;;;;;;;;;;5046896;28;20189;-70
2020/12/01 03:40:30;;;;;;;24.73;3.73;;;;;;;;;;5040321;28;20668;-71
2020/12/01 03:42:55;;;;;;;23.87;3.80;;;;;;;;;;5045008;28;20268;-71
2020/12/01 03:45:20;;;;;;;34.80;3.87;;;;;;;;;;5045279;28;20189;-71
2020/12/01 03:47:46;;;;;;;17.50;2.83;;;;;;;;;;5040992;28;20230;-71
2020/12/01 03:50:12;;;;;;;30.23;3.57;;;;;;;;;;5040164;28;20197;-70
2020/12/01 03:52:38;;;;;;;20.23;3.00;;;;;;;;;;5039738;28;20181;-70
2020/12/01 03:55:05;;;;;;;21.83;3.00;;;;;;;;;;5048492;28;20217;-70
2020/12/01 03:57:40;;;;;;;25.63;3.63;;;;;;;;;;5040602;28;20517;-70
2020/12/01 04:00:06;;;;;;;24.33;3.03;;;;;;;;;;5047735;28;20216;-70
2020/12/01 04:02:31;;;;;;;21.83;2.80;;;;;;;;;;5039350;28;20216;-70
2020/12/01 04:04:56;;;;;;;21.17;2.97;;;;;;;;;;5047066;28;20216;-70
2020/12/01 04:07:23;;;;;;;23.13;2.83;;;;;;;;;;5039039;28;20215;-70
2020/12/01 04:09:48;;;;;;;24.90;2.67;;;;;;;;;;5045407;28;20194;-70
2020/12/01 04:12:13;;;;;;;22.07;2.47;;;;;;;;;;5043607;28;20196;-70
2020/12/01 04:14:39;;;;;;;22.30;2.67;;;;;;;;;;5052567;28;20217;-70
2020/12/01 04:17:04;;;;;;;23.80;2.83;;;;;;;;;;5038587;28;20182;-70
2020/12/01 04:19:29;;;;;;;28.23;2.30;;;;;;;;;;5051116;28;20197;-70
2020/12/01 04:21:55;;;;;;;19.67;2.20;;;;;;;;;;5043032;28;20649;-70
2020/12/01 04:24:20;;;;;;;28.83;3.37;;;;;;;;;;5041576;28;20281;-70
2020/12/01 04:26:45;;;;;;;27.30;3.23;;;;;;;;;;5052031;28;20186;-70
2020/12/01 04:29:11;;;;;;;32.73;2.43;;;;;;;;;;5040382;28;20599;-70
2020/12/01 04:31:36;;;;;;;26.30;3.00;;;;;;;;;;5049640;28;20194;-70
2020/12/01 04:34:01;;;;;;;24.20;2.83;;;;;;;;;;5043764;28;20229;-70
2020/12/01 04:36:26;;;;;;;24.47;2.80;;;;;;;;;;5049769;28;20207;-70
2020/12/01 04:38:52;;;;;;;17.23;2.53;;;;;;;;;;5044706;28;20193;-70
2020/12/01 04:41:17;;;;;;;22.13;2.80;;;;;;;;;;5049032;28;20633;-71
2020/12/01 04:43:51;;;;;;;24.87;2.90;;;;;;;;;;5040029;28;20220;-71
2020/12/01 04:46:21;;;;;;;26.07;3.10;;;;;;;;;;5045307;28;20212;-71
2020/12/01 04:48:58;;;;;;;29.73;2.83;;;;;;;;;;5042182;28;20224;-71
2020/12/01 04:51:38;;;;;;;23.63;2.53;;;;;;;;;;5051278;28;20191;-71
2020/12/01 04:54:53;;;;;;;27.33;3.30;;;;;;;;;;5042506;28;20291;-71
2020/12/01 04:57:31;;;;;;;37.47;3.33;;;;;;;;;;5047904;28;20189;-71
2020/12/01 05:00:14;;;;;;;32.30;3.40;;;;;;;;;;5043397;28;20264;-71
2020/12/01 05:02:59;;;;;;;26.83;2.40;;;;;;;;;;5052048;28;20180;-71
2020/12/01 05:08:42;;;;;;;27.93;3.17;;;;;;;;;;5049134;28;20217;-71
2020/12/01 05:11:37;;;;;;;28.37;3.20;;;;;;;;;;5042859;28;20220;-71
2020/12/01 05:14:30;;;;;;;30.40;3.27;;;;;;;;;;5050138;28;20206;-71
2020/12/01 05:17:38;;;;;;;40.23;4.10;;;;;;;;;;5043828;28;20260;-71
2020/12/01 05:20:05;;;;;;;17.27;2.80;;;;;;;;;;5035741;28;20239;-71
2020/12/01 05:22:31;;;;;;;28.13;2.63;;;;;;;;;;5049161;28;20220;-71
2020/12/01 05:24:56;;;;;;;25.70;3.07;;;;;;;;;;5050192;28;20201;-71
2020/12/01 05:27:28;;;;;;;32.97;4.00;;;;;;;;;;5043035;28;20724;-71
2020/12/01 05:30:22;;;;;;;26.80;2.60;;;;;;;;;;5047302;28;20273;-71
2020/12/01 05:33:19;;;;;;;24.67;2.83;;;;;;;;;;5039687;28;20885;-71
2020/12/01 05:35:59;;;;;;;28.50;3.30;;;;;;;;;;5046836;28;20275;-71
2020/12/01 05:38:25;;;;;;;28.83;3.57;;;;;;;;;;5048869;28;20637;-71
2020/12/01 05:41:15;;;;;;;19.17;2.83;;;;;;;;;;5048341;28;20190;-71
2020/12/01 05:43:43;;;;;;;21.80;2.33;;;;;;;;;;5045829;28;20182;-71
2020/12/01 05:46:41;;;;;;;24.10;2.47;;;;;;;;;;5052293;28;20197;-71
2020/12/01 05:49:30;;;;;;;26.60;2.70;;;;;;;;;;5049136;28;20645;-71
2020/12/01 05:52:04;;;;;;;28.80;3.40;;;;;;;;;;5041366;28;20189;-71
2020/12/01 05:54:37;;;;;;;29.57;3.10;;;;;;;;;;5050152;28;20673;-71
2020/12/01 05:57:11;;;;;;;27.63;3.50;;;;;;;;;;5037322;28;20204;-70
2020/12/01 05:59:37;;;;;;;24.07;3.30;;;;;;;;;;5040199;28;20177;-70
2020/12/01 06:02:05;;;;;;;22.83;2.83;;;;;;;;;;5048511;28;20585;-70
2020/12/01 06:04:32;;;;;;;22.83;3.13;;;;;;;;;;5038896;28;20193;-70
2020/12/01 06:07:25;;;;;;;26.03;3.17;;;;;;;;;;5047531;28;20603;-70
2020/12/01 06:10:06;;;;;;;25.90;3.07;;;;;;;;;;5041230;28;20713;-70
2020/12/01 06:12:31;;;;;;;20.03;3.20;;;;;;;;;;5042787;28;20221;-70
2020/12/01 06:15:09;;;;;;;35.80;4.03;;;;;;;;;;5036631;28;21079;-70
2020/12/01 06:17:44;;;;;;;23.03;3.37;;;;;;;;;;5049166;28;20577;-70
2020/12/01 06:20:28;;;;;;;31.90;3.77;;;;;;;;;;5040484;28;20230;-70
2020/12/01 06:23:24;;;;;;;33.00;4.27;;;;;;;;;;5048920;28;20655;-70
2020/12/01 06:26:02;;;;;;;27.73;3.93;;;;;;;;;;5045367;28;20203;-70
2020/12/01 06:28:52;;;;;;;32.83;4.30;;;;;;;;;;5048688;28;20195;-70
2020/12/01 06:31:48;;;;;;;37.60;5.00;;;;;;;;;;5044705;28;20182;-70
2020/12/01 06:34:57;;;;;;;24.37;4.13;;;;;;;;;;5036306;28;20209;-70
2020/12/01 06:37:32;;;;;;;29.13;5.10;;;;;;;;;;5047939;28;20680;-71
2020/12/01 06:39:57;;;;;;;39.80;4.90;;;;;;;;;;5040082;28;20192;-70
2020/12/01 06:42:41;;;;;;;28.43;5.53;;;;;;;;;;5048941;28;20193;-70
2020/12/01 06:45:22;;;;;;;27.70;5.23;;;;;;;;;;5038254;28;20192;-70
2020/12/01 06:47:50;;;;;;;35.27;5.80;;;;;;;;;;5049311;28;20185;-70
2020/12/01 06:50:19;;;;;;;34.60;6.13;;;;;;;;;;5041156;28;20177;-70
2020/12/01 06:52:59;;;;;;;33.23;6.63;;;;;;;;;;5041255;28;20185;-70
2020/12/01 06:55:41;;;;;;;32.47;6.97;;;;;;;;;;5038559;28;20311;-70
2020/12/01 06:58:19;;;;;;;31.27;6.17;;;;;;;;;;5049001;28;20189;-70
2020/12/01 07:00:44;;;;;;;27.97;6.50;;;;;;;;;;5037816;28;20303;-70
2020/12/01 07:03:10;;;;;;;36.47;7.47;;;;;;;;;;5047344;28;20276;-70
2020/12/01 07:05:36;;;;;;;30.53;7.13;;;;;;;;;;5041632;28;20185;-70
2020/12/01 07:08:22;;;;;;;35.07;6.80;;;;;;;;;;5043025;28;20205;-70
2020/12/01 07:10:47;;;;;;;39.37;6.63;;;;;;;;;;5039961;28;20208;-69
2020/12/01 07:13:23;;;;;;;27.20;6.20;;;;;;;;;;5046256;28;20604;-70
2020/12/01 07:15:51;;;;;;;29.57;6.50;;;;;;;;;;5046433;28;20185;-70
2020/12/01 07:18:29;;;;;;;39.60;6.87;;;;;;;;;;5037145;28;20652;-70
2020/12/01 07:21:41;;;;;;;26.90;6.23;;;;;;;;;;5059130;28;20197;-70
2020/12/01 07:24:18;;;;;;;23.93;5.87;;;;;;;;;;5044115;28;20182;-70
2020/12/01 07:27:05;;;;;;;30.23;7.87;;;;;;;;;;5037716;28;20204;-70
2020/12/01 07:29:52;;;;;;;33.50;7.73;;;;;;;;;;5044770;28;20203;-70
2020/12/01 07:32:22;;;;;;;30.23;8.30;;;;;;;;;;5028198;28;20221;-70
2020/12/01 07:34:49;;;;;;;37.53;7.57;;;;;;;;;;5040685;28;20221;-71
2020/12/01 07:37:23;;;;;;;27.97;7.70;;;;;;;;;;5033697;28;20216;-71
2020/12/01 07:40:00;;;;;;;30.27;7.40;;;;;;;;;;5042501;28;20698;-71
2020/12/01 07:42:29;;;;;;;29.43;6.47;;;;;;;;;;5036563;28;20180;-71
2020/12/01 07:44:56;;;;;;;28.50;7.47;;;;;;;;;;5046032;28;20268;-71
2020/12/01 07:47:25;;;;;;;25.87;6.63;;;;;;;;;;5044571;28;20583;-71
2020/12/01 07:50:01;;;;;;;21.63;6.23;;;;;;;;;;5037807;28;20239;-71
2020/12/01 07:52:32;;;;;;;29.47;6.10;;;;;;;;;;5044110;28;20193;-71
2020/12/01 07:55:03;;;;;;;29.23;6.40;;;;;;;;;;5037782;28;20205;-71
2020/12/01 07:57:28;;;;;;;22.20;5.87;;;;;;;;;;5044089;28;20185;-71
2020/12/01 07:59:54;;;;;;;32.00;7.77;;;;;;;;;;5037855;28;20235;-71
2020/12/01 08:02:28;;;;;;;21.20;6.60;;;;;;;;;;5043982;28;20683;-71
2020/12/01 08:05:05;;;;;;;30.47;7.67;;;;;;;;;;5039064;28;20191;-71
2020/12/01 08:07:31;;;;;;;21.60;6.83;;;;;;;;;;5044845;28;20208;-71
2020/12/01 08:10:11;;;;;;;22.57;7.47;;;;;;;;;;5047827;28;20189;-71
2020/12/01 08:12:43;;;;;;;21.57;6.87;;;;;;;;;;5044875;28;20174;-71
2020/12/01 08:15:17;;;;;;;15.30;6.10;;;;;;;;;;5034789;28;20746;-71
2020/12/01 08:17:42;;;;;;;18.87;5.93;;;;;;;;;;5048378;28;20251;-72
2020/12/01 08:20:12;;;;;;;20.07;6.40;;;;;;;;;;5039416;28;20186;-71
2020/12/01 08:22:39;;;;;;;17.73;5.53;;;;;;;;;;5047230;28;20182;-71
2020/12/01 08:25:12;;;;;;;16.57;5.20;;;;;;;;;;5040923;28;20197;-72
2020/12/01 08:27:48;;;;;;;15.50;4.63;;;;;;;;;;5044650;28;20205;-72
2020/12/01 08:30:40;;;;;;;9.77;4.40;;;;;;;;;;5033097;28;20268;-72
2020/12/01 08:33:20;;;;;;;10.43;4.00;;;;;;;;;;5035807;28;20306;-73
2020/12/01 08:35:59;;;;;;;9.97;4.30;;;;;;;;;;5033301;28;20593;-73
2020/12/01 08:39:11;;;;;;;9.97;3.67;;;;;;;;;;5045511;28;20197;-72
2020/12/01 08:41:53;;;;;;;12.17;3.90;;;;;;;;;;5035490;28;20181;-71
2020/12/01 08:44:24;;;;;;;13.87;4.00;;;;;;;;;;5041438;28;20188;-71
2020/12/01 08:46:50;;;;;;;7.23;2.93;;;;;;;;;;5035953;28;20714;-72
2020/12/01 08:49:40;;;;;;;10.83;3.47;;;;;;;;;;5039708;28;20193;-72
2020/12/01 08:52:03;;;;;;;12.30;3.20;;;;;;;;;;5036753;28;20594;-73
2020/12/01 08:54:34;;;;;;;9.63;3.47;;;;;;;;;;5053743;28;20204;-72
2020/12/01 08:57:08;;;;;;;10.10;3.17;;;;;;;;;;5038241;28;20217;-73
2020/12/01 08:59:47;;;;;;;11.50;3.30;;;;;;;;;;5048661;28;20180;-71
2020/12/01 09:02:16;;;;;;;9.73;3.03;;;;;;;;;;5040211;28;20299;-71
2020/12/01 09:04:41;;;;;;;11.43;2.73;;;;;;;;;;5050030;28;20186;-71
2020/12/01 09:07:14;;;;;;;9.90;3.03;;;;;;;;;;5042058;28;20259;-71
2020/12/01 09:09:41;;;;;;;7.37;2.30;;;;;;;;;;5047087;28;20184;-71
2020/12/01 09:12:31;;;;;;;11.43;3.00;;;;;;;;;;5039490;28;20199;-71
2020/12/01 09:15:12;;;;;;;8.93;2.17;;;;;;;;;;5048508;28;20197;-72
2020/12/01 09:18:26;;;;;;;13.27;2.60;;;;;;;;;;5040495;28;20193;-71
2020/12/01 09:23:32;;;;;;;6.83;1.93;;;;;;;;;;5036849;28;20301;-72
2020/12/01 09:25:58;;;;;;;5.17;2.20;;;;;;;;;;5051089;28;20674;-72
2020/12/01 09:28:27;;;;;;;11.10;2.67;;;;;;;;;;5037934;28;20311;-71
2020/12/01 09:30:52;;;;;;;12.03;1.80;;;;;;;;;;5047342;28;20174;-71
2020/12/01 09:33:21;;;;;;;10.17;2.17;;;;;;;;;;5038753;28;20716;-71
2020/12/01 09:35:48;;;;;;;12.93;2.40;;;;;;;;;;5047375;28;20645;-71
2020/12/01 09:38:14;;;;;;;11.17;1.90;;;;;;;;;;5043112;28;20280;-71
2020/12/01 09:40:40;;;;;;;8.07;2.03;;;;;;;;;;5048250;28;20193;-71
2020/12/01 09:43:16;;;;;;;7.53;2.10;;;;;;;;;;5051447;28;20193;-71
2020/12/01 09:45:43;;;;;;;13.07;3.47;;;;;;;;;;5045898;28;20831;-71
2020/12/01 09:50:41;;;;;;;14.13;2.17;;;;;;;;;;5039514;28;20598;-71
2020/12/01 09:56:10;;;;;;;12.30;2.93;;;;;;;;;;5039355;28;20195;-71
2020/12/01 10:12:28;;;;;;;21.17;2.97;;;;;;;;;;5036156;28;20794;-72
2020/12/01 10:21:22;;;;;;;22.50;3.60;;;;;;;;;;4986958;28;20207;-72
2020/12/01 10:25:01;;;;;;;25.25;2.97;;;;;;;;;;5037246;28;20194;-72
2020/12/01 10:27:08;;;;;;;24.37;3.60;;;;;;;;;;5039959;28;20546;-72
2020/12/01 10:33:57;;;;;;;30.30;4.00;;;;;;;;;;5038261;28;20651;-72
2020/12/01 10:35:22;;;;;;;21.83;3.70;;;;;;;;;;5048270;28;20711;-72
2020/12/01 10:38:00;;;;;;;18.97;3.10;;;;;;;;;;5034314;28;20186;-72
2020/12/01 10:40:26;;;;;;;19.87;3.03;;;;;;;;;;5049025;28;20185;-70
2020/12/01 10:42:52;;;;;;;18.00;3.00;;;;;;;;;;5038711;28;20667;-72
2020/12/01 10:45:19;;;;;;;25.97;3.00;;;;;;;;;;5051519;28;20189;-72
2020/12/01 10:47:45;;;;;;;21.27;3.53;;;;;;;;;;5038174;28;20730;-72
2020/12/01 10:50:11;;;;;;;25.83;2.93;;;;;;;;;;5049167;28;20197;-72
2020/12/01 10:52:37;;;;;;;19.10;2.43;;;;;;;;;;5037631;28;20232;-72
2020/12/01 10:55:04;;;;;;;17.90;2.93;;;;;;;;;;5047493;28;20228;-72
2020/12/01 10:57:29;;;;;;;17.87;3.73;;;;;;;;;;5033315;28;20185;-72
2020/12/01 10:59:55;;;;;;;16.70;2.43;;;;;;;;;;5044549;28;20598;-72
2020/12/01 11:02:20;;;;;;;19.63;2.23;;;;;;;;;;5044337;28;20283;-72
2020/12/01 11:04:45;;;;;;;15.43;2.67;;;;;;;;;;5038166;28;20182;-72
2020/12/01 11:07:11;;;;;;;14.82;2.33;;;;;;;;;;5047257;28;20572;-72
2020/12/01 11:09:36;;;;;;;14.73;2.70;;;;;;;;;;5039164;28;20193;-72
2020/12/01 11:12:01;;;;;;;14.30;2.37;;;;;;;;;;5047294;28;20192;-71
2020/12/01 11:14:27;;;;;;;17.90;2.67;;;;;;;;;;5038944;28;20571;-72
2020/12/01 11:16:52;;;;;;;15.93;2.33;;;;;;;;;;5046947;28;20786;-72
2020/12/01 11:19:18;;;;;;;13.98;2.85;;;;;;;;;;5041061;28;20185;-72
2020/12/01 11:21:43;;;;;;;18.00;2.40;;;;;;;;;;5042876;28;20177;-74
2020/12/01 11:24:08;;;;;;;25.37;2.43;;;;;;;;;;5040328;28;20185;-72
2020/12/01 11:26:34;;;;;;;22.27;3.00;;;;;;;;;;5046483;28;20181;-72
2020/12/01 11:28:59;;;;;;;21.33;2.60;;;;;;;;;;5040970;28;20185;-74
2020/12/01 11:31:25;;;;;;;19.37;3.10;;;;;;;;;;5045453;28;20224;-73
2020/12/01 11:34:20;;;;;;;22.73;3.43;;;;;;;;;;5045173;28;20675;-72
2020/12/01 11:36:45;;;;;;;25.57;3.80;;;;;;;;;;5041518;28;20250;-72
2020/12/01 11:39:13;;;;;;;17.83;3.57;;;;;;;;;;5045467;28;20571;-72
2020/12/01 11:41:39;;;;;;;28.90;3.77;;;;;;;;;;5035623;28;20190;-71
2020/12/01 11:44:05;;;;;;;31.93;5.50;;;;;;;;;;5043851;28;20583;-72
2020/12/01 11:46:31;;;;;;;23.43;3.30;;;;;;;;;;5040507;28;20208;-71
2020/12/01 11:49:01;;;;;;;31.33;3.63;;;;;;;;;;5044440;28;20637;-71
2020/12/01 11:51:28;;;;;;;25.70;3.13;;;;;;;;;;5037660;28;20216;-72
2020/12/01 11:53:53;;;;;;;23.57;3.47;;;;;;;;;;5045095;28;20201;-71
2020/12/01 11:56:18;;;;;;;22.07;3.07;;;;;;;;;;5038250;28;20193;-71
2020/12/01 11:58:44;;;;;;;26.70;4.70;;;;;;;;;;5045430;28;20185;-71
2020/12/01 12:01:10;;;;;;;30.50;4.37;;;;;;;;;;5037954;28;20193;-71
2020/12/01 12:03:35;;;;;;;32.67;3.83;;;;;;;;;;5044277;28;20268;-71
2020/12/01 12:06:00;;;;;;;24.17;3.60;;;;;;;;;;5037242;28;20300;-71
2020/12/01 12:08:26;;;;;;;33.65;4.22;;;;;;;;;;5042707;28;20220;-72
2020/12/01 12:10:51;;;;;;;25.42;3.63;;;;;;;;;;5046622;28;20174;-72
2020/12/01 12:13:16;;;;;;;25.60;3.78;;;;;;;;;;5036256;28;20186;-72
2020/12/01 12:15:42;;;;;;;20.77;3.33;;;;;;;;;;5045893;28;20509;-72
2020/12/01 12:18:07;;;;;;;23.95;3.80;;;;;;;;;;5035790;28;20222;-72
2020/12/01 12:20:32;;;;;;;31.33;4.18;;;;;;;;;;5045595;28;20194;-72
2020/12/01 12:22:58;;;;;;;23.95;3.85;;;;;;;;;;5036690;28;20190;-72
2020/12/01 12:25:23;;;;;;;20.93;3.10;;;;;;;;;;5048616;28;20197;-72
2020/12/01 12:27:48;;;;;;;33.23;3.80;;;;;;;;;;5037828;28;20675;-72
2020/12/01 12:30:14;;;;;;;20.88;4.25;;;;;;;;;;5039926;28;20644;-72
2020/12/01 12:32:39;;;;;;;25.98;3.78;;;;;;;;;;5040040;28;20230;-72
2020/12/01 12:35:06;;;;;;;21.42;3.80;;;;;;;;;;5051579;28;20213;-72
2020/12/01 12:37:31;;;;;;;17.23;2.90;;;;;;;;;;5041598;28;20184;-72
2020/12/01 12:39:56;;;;;;;18.33;3.05;;;;;;;;;;5049005;28;20826;-72
2020/12/01 12:42:22;;;;;;;24.27;3.63;;;;;;;;;;5047693;28;20182;-72
2020/12/01 12:44:47;;;;;;;25.08;3.83;;;;;;;;;;5041267;28;20185;-72
2020/12/01 12:47:12;;;;;;;25.90;4.28;;;;;;;;;;5050787;28;20521;-72
2020/12/01 12:49:38;;;;;;;19.10;2.72;;;;;;;;;;5041397;28;20212;-72
2020/12/01 12:52:03;;;;;;;15.25;3.13;;;;;;;;;;5048692;28;20200;-72
2020/12/01 12:54:29;;;;;;;19.55;2.92;;;;;;;;;;5040835;28;20207;-72
2020/12/01 12:56:54;;;;;;;19.47;2.90;;;;;;;;;;5047314;28;20239;-72
2020/12/01 12:59:19;;;;;;;14.40;2.50;;;;;;;;;;5039645;28;20255;-72
2020/12/01 13:01:45;;;;;;;14.05;2.67;;;;;;;;;;5049067;28;20629;-72
2020/12/01 13:04:10;;;;;;;9.52;2.20;;;;;;;;;;5044517;28;20708;-72
2020/12/01 13:06:35;;;;;;;14.18;2.85;;;;;;;;;;5051122;28;20184;-72
2020/12/01 13:09:01;;;;;;;18.55;3.13;;;;;;;;;;5042902;28;20182;-72
2020/12/01 13:11:26;;;;;;;12.25;1.95;;;;;;;;;;5050396;28;20519;-72
2020/12/01 13:13:51;;;;;;;13.05;2.17;;;;;;;;;;5047696;28;20264;-72
2020/12/01 13:16:18;;;;;;;14.23;2.30;;;;;;;;;;5039974;28;20189;-71
2020/12/01 13:18:44;;;;;;;13.23;3.40;;;;;;;;;;5051769;28;20250;-71
2020/12/01 13:21:10;;;;;;;14.03;2.73;;;;;;;;;;5039129;28;20190;-72
2020/12/01 13:23:35;;;;;;;10.00;2.20;;;;;;;;;;5049683;28;20554;-72
2020/12/01 13:26:01;;;;;;;12.30;2.77;;;;;;;;;;5040472;28;20188;-72
2020/12/01 13:28:26;;;;;;;14.32;2.40;;;;;;;;;;5046246;28;20193;-71
2020/12/01 13:30:51;;;;;;;9.05;2.30;;;;;;;;;;5038872;28;20675;-71
2020/12/01 13:33:17;;;;;;;7.40;2.30;;;;;;;;;;5045661;28;20233;-72
2020/12/01 13:35:42;;;;;;;13.23;2.97;;;;;;;;;;5041312;28;20200;-73
2020/12/01 13:38:07;;;;;;;9.50;2.90;;;;;;;;;;5049562;28;20185;-71
2020/12/01 13:40:33;;;;;;;13.90;3.13;;;;;;;;;;5037858;28;20218;-72
2020/12/01 13:42:58;;;;;;;9.23;3.25;;;;;;;;;;5049584;28;20217;-71
2020/12/01 13:45:23;;;;;;;14.37;4.07;;;;;;;;;;5047268;28;20176;-71
2020/12/01 13:47:49;;;;;;;15.00;4.37;;;;;;;;;;5034314;28;20218;-72
2020/12/01 13:50:18;;;;;;;11.27;3.50;;;;;;;;;;5045494;28;20181;-72
2020/12/01 13:52:44;;;;;;;11.80;4.03;;;;;;;;;;5036469;28;20189;-72
2020/12/01 13:55:11;;;;;;;9.17;3.03;;;;;;;;;;5047500;28;20303;-72
2020/12/01 13:57:36;;;;;;;7.90;3.10;;;;;;;;;;5040207;28;20199;-71
2020/12/01 14:00:05;;;;;;;10.03;3.77;;;;;;;;;;5043335;28;20185;-72
2020/12/01 14:02:31;;;;;;;9.30;3.77;;;;;;;;;;5040256;28;20194;-72
2020/12/01 14:04:56;;;;;;;8.73;3.90;;;;;;;;;;5046189;28;20637;-72
2020/12/01 14:07:21;;;;;;;11.67;4.40;;;;;;;;;;5037102;28;20201;-72
2020/12/01 14:09:47;;;;;;;6.80;3.83;;;;;;;;;;5038069;28;20610;-72
2020/12/01 14:12:12;;;;;;;19.70;5.13;;;;;;;;;;5038433;28;20292;-72
2020/12/01 14:14:37;;;;;;;13.43;4.80;;;;;;;;;;5045309;28;20190;-72
2020/12/01 14:17:03;;;;;;;10.83;5.07;;;;;;;;;;5048237;28;20200;-72
2020/12/01 14:19:28;;;;;;;12.87;4.90;;;;;;;;;;5037708;28;20190;-72
2020/12/01 14:21:54;;;;;;;10.70;5.07;;;;;;;;;;5046188;28;20186;-72
2020/12/01 14:24:19;;;;;;;18.77;5.53;;;;;;;;;;5037287;28;20185;-72
2020/12/01 14:26:44;;;;;;;11.70;5.27;;;;;;;;;;5048150;28;20181;-72
2020/12/01 14:29:10;;;;;;;13.30;6.10;;;;;;;;;;5037146;28;20201;-72
2020/12/01 14:31:35;;;;;;;14.33;5.80;;;;;;;;;;5045797;28;20243;-72
2020/12/01 14:34:00;;;;;;;13.87;5.73;;;;;;;;;;5040738;28;20270;-72
2020/12/01 14:36:29;;;;;;;15.67;5.73;;;;;;;;;;5050664;28;20264;-72
2020/12/01 14:38:55;;;;;;;14.70;5.87;;;;;;;;;;5032517;28;20641;-72
2020/12/01 14:41:21;;;;;;;14.50;6.63;;;;;;;;;;5052482;28;20220;-71
2020/12/01 14:43:48;;;;;;;13.50;7.03;;;;;;;;;;5037642;28;20199;-72
2020/12/01 14:46:42;;;;;;;15.03;6.77;;;;;;;;;;5051219;28;20189;-72
2020/12/01 14:49:12;;;;;;;12.40;6.43;;;;;;;;;;5035251;28;20247;-72
2020/12/01 14:51:57;;;;;;;14.53;6.50;;;;;;;;;;5048793;28;20239;-71
2020/12/01 14:54:24;;;;;;;17.10;6.87;;;;;;;;;;5038842;28;20212;-72
2020/12/01 14:57:01;;;;;;;17.83;6.80;;;;;;;;;;5047482;28;20194;-72
2020/12/01 14:59:54;;;;;;;13.30;6.83;;;;;;;;;;5039612;28;20544;-72
2020/12/01 15:02:46;;;;;;;19.13;7.40;;;;;;;;;;5046466;28;20193;-72
2020/12/01 15:05:37;;;;;;;17.70;8.27;;;;;;;;;;5037612;28;20193;-72
2020/12/01 15:08:31;;;;;;;16.87;6.47;;;;;;;;;;5047534;28;20213;-72
2020/12/01 15:11:25;;;;;;;18.07;6.97;;;;;;;;;;5039904;28;20280;-72
2020/12/01 15:13:50;;;;;;;13.10;6.80;;;;;;;;;;5062774;28;20197;-72
2020/12/01 15:16:27;;;;;;;13.37;7.57;;;;;;;;;;5039674;28;20231;-72
2020/12/01 15:18:54;;;;;;;11.40;6.17;;;;;;;;;;5047217;28;20177;-72
2020/12/01 15:21:24;;;;;;;14.93;6.67;;;;;;;;;;5034418;28;20208;-72